Time;durP1;ratioP1;P1;durP2;ratioP2;P2;SDS_P1;SDS_P2;PMS_P1;PMS_P2;Temp;Humidity;BMP_temperature;BMP_pressure;BME280_temperature;BME280_humidity;BME280_pressure;Samples;Min_cycle;Max_cycle;Signal;HPM_P1;HPM_P2
2024/02/16 00:03:38;;;;;;;4.93;4.47;;;11.70;36.00;;;;;;10449308;28;20313;-71
2024/02/16 00:08:42;;;;;;;4.50;4.10;;;11.60;36.10;;;;;;10449002;28;20229;-71
2024/02/16 00:13:46;;;;;;;4.67;4.37;;;11.50;35.90;;;;;;10448720;28;20307;-71
2024/02/16 00:18:50;;;;;;;4.83;4.43;;;11.40;36.10;;;;;;10464945;28;20339;-73
2024/02/16 00:23:54;;;;;;;4.43;4.13;;;11.40;36.50;;;;;;10448405;28;20252;-71
2024/02/16 00:28:57;;;;;;;4.73;4.30;;;11.20;36.50;;;;;;10448286;28;20322;-71
2024/02/16 00:34:02;;;;;;;4.47;4.07;;;11.20;36.60;;;;;;10448190;28;20604;-71
2024/02/16 00:39:05;;;;;;;4.50;4.10;;;11.20;36.80;;;;;;10447439;28;20747;-71
2024/02/16 00:44:08;;;;;;;4.30;3.90;;;11.20;36.70;;;;;;10447708;28;20229;-71
2024/02/16 00:49:13;;;;;;;4.70;4.30;;;11.20;36.80;;;;;;10447646;28;20665;-71
2024/02/16 00:54:16;;;;;;;4.27;3.87;;;11.20;36.80;;;;;;10439029;28;20739;-71
2024/02/16 00:59:20;;;;;;;4.30;4.00;;;11.20;36.60;;;;;;10446842;28;20303;-71
2024/02/16 01:04:25;;;;;;;4.93;4.43;;;11.20;36.60;;;;;;10446768;28;20237;-71
2024/02/16 01:09:28;;;;;;;4.60;4.03;;;11.20;36.60;;;;;;10446666;28;20743;-71
2024/02/16 01:14:32;;;;;;;4.93;4.53;;;11.20;36.60;;;;;;10446977;28;20229;-71
2024/02/16 01:19:36;;;;;;;4.00;3.70;;;11.20;36.60;;;;;;10446675;28;20609;-71
2024/02/16 01:24:39;;;;;;;4.27;3.87;;;11.20;36.70;;;;;;10443742;28;20221;-71
2024/02/16 01:29:43;;;;;;;3.93;3.63;;;11.20;36.70;;;;;;10446563;28;20322;-70
2024/02/16 01:34:49;;;;;;;3.80;3.50;;;11.20;36.60;;;;;;10446519;28;20239;-71
2024/02/16 01:39:53;;;;;;;4.40;4.00;;;11.10;36.50;;;;;;10446030;28;20233;-71
2024/02/16 01:44:56;;;;;;;4.60;4.20;;;11.10;36.60;;;;;;10446274;28;20261;-71
2024/02/16 01:50:01;;;;;;;4.20;3.90;;;11.00;36.70;;;;;;10437749;28;20282;-71
2024/02/16 01:55:08;;;;;;;4.47;4.07;;;10.90;36.90;;;;;;10432729;28;20247;-71
2024/02/16 02:00:14;;;;;;;3.90;3.60;;;10.90;36.90;;;;;;10445309;28;20237;-73
2024/02/16 02:05:19;;;;;;;4.43;4.03;;;10.90;37.90;;;;;;10445942;28;20224;-71
2024/02/16 02:10:23;;;;;;;4.33;3.90;;;10.80;37.40;;;;;;10445536;28;20229;-71
2024/02/16 02:15:26;;;;;;;4.33;4.03;;;10.80;37.30;;;;;;10445643;28;20324;-71
2024/02/16 02:20:31;;;;;;;4.23;3.93;;;10.80;37.30;;;;;;10445925;28;20316;-71
2024/02/16 02:25:36;;;;;;;4.07;3.77;;;10.90;37.50;;;;;;10453125;28;20623;-71
2024/02/16 02:30:39;;;;;;;5.40;4.90;;;10.80;37.60;;;;;;10453108;28;20784;-71
2024/02/16 02:35:42;;;;;;;5.03;4.53;;;10.80;37.60;;;;;;10452533;28;20221;-71
2024/02/16 02:40:47;;;;;;;5.13;4.33;;;10.60;37.70;;;;;;10452645;28;20232;-71
2024/02/16 02:45:50;;;;;;;4.40;4.00;;;10.50;38.30;;;;;;10452557;28;20784;-73
2024/02/16 02:50:53;;;;;;;4.97;4.57;;;10.40;38.20;;;;;;10451960;28;20745;-71
2024/02/16 02:55:58;;;;;;;5.13;4.63;;;10.40;38.30;;;;;;10451770;28;20603;-71
2024/02/16 03:01:01;;;;;;;5.43;4.20;;;10.50;38.50;;;;;;10451663;28;20793;-71
2024/02/16 03:06:05;;;;;;;4.50;4.10;;;10.50;38.40;;;;;;10451603;28;20608;-71
2024/02/16 03:11:10;;;;;;;5.00;4.50;;;10.40;38.30;;;;;;10451211;28;20787;-71
2024/02/16 03:16:14;;;;;;;4.97;4.47;;;10.40;38.70;;;;;;10467994;28;20240;-71
2024/02/16 03:21:17;;;;;;;5.73;4.50;;;10.40;38.60;;;;;;10462100;28;20236;-71
2024/02/16 03:26:22;;;;;;;5.27;4.77;;;10.40;38.60;;;;;;10450695;28;20585;-71
2024/02/16 03:31:26;;;;;;;5.10;4.60;;;10.50;38.90;;;;;;10450946;28;20235;-71
2024/02/16 03:36:30;;;;;;;5.30;4.90;;;10.50;38.40;;;;;;10450560;28;20347;-71
2024/02/16 03:41:35;;;;;;;5.90;5.23;;;10.40;38.40;;;;;;10449855;28;21326;-71
2024/02/16 03:46:38;;;;;;;5.03;4.63;;;10.30;38.70;;;;;;10449654;28;20306;-73
2024/02/16 03:51:41;;;;;;;5.40;4.87;;;10.20;38.70;;;;;;10449595;28;20229;-71
2024/02/16 03:56:46;;;;;;;5.63;5.03;;;10.20;39.10;;;;;;10449124;28;20237;-71
2024/02/16 04:01:49;;;;;;;5.80;4.30;;;10.20;39.40;;;;;;10449136;28;20654;-73
2024/02/16 04:06:52;;;;;;;4.23;3.83;;;10.30;39.00;;;;;;10462230;28;20243;-73
2024/02/16 04:11:57;;;;;;;4.30;3.90;;;10.30;39.00;;;;;;10459778;28;20228;-71
2024/02/16 04:17:01;;;;;;;4.10;3.80;;;10.40;39.00;;;;;;10448657;28;20312;-71
2024/02/16 04:22:05;;;;;;;4.00;3.70;;;10.40;38.60;;;;;;10447706;28;20722;-71
2024/02/16 04:27:09;;;;;;;3.57;3.27;;;10.50;38.70;;;;;;10448250;28;20233;-71
2024/02/16 04:32:13;;;;;;;4.00;3.70;;;10.50;38.70;;;;;;10448226;28;20247;-71
2024/02/16 04:37:18;;;;;;;4.13;3.83;;;10.50;38.80;;;;;;10447727;28;20228;-73
2024/02/16 04:42:23;;;;;;;4.27;3.80;;;10.50;38.70;;;;;;10432483;28;20345;-71
2024/02/16 04:47:26;;;;;;;4.70;4.40;;;10.50;39.00;;;;;;10447057;28;20235;-73
2024/02/16 04:52:30;;;;;;;6.20;5.60;;;10.50;38.70;;;;;;10447639;28;20236;-71
2024/02/16 04:57:35;;;;;;;5.83;5.33;;;10.40;38.90;;;;;;10447124;28;20260;-71
2024/02/16 05:02:38;;;;;;;5.57;5.07;;;10.30;39.50;;;;;;10447376;28;20242;-73
2024/02/16 05:07:41;;;;;;;5.20;4.80;;;10.20;39.50;;;;;;10446922;28;20243;-71
2024/02/16 05:12:46;;;;;;;5.20;4.70;;;10.20;39.60;;;;;;10446661;28;20228;-71
2024/02/16 05:17:50;;;;;;;4.70;4.30;;;10.10;40.00;;;;;;10446603;28;20262;-71
2024/02/16 05:22:54;;;;;;;4.10;3.70;;;10.10;39.70;;;;;;10446381;28;20232;-71
2024/02/16 05:28:00;;;;;;;4.23;3.93;;;10.10;39.90;;;;;;10446225;28;20318;-71
2024/02/16 05:33:03;;;;;;;4.20;3.80;;;10.10;40.00;;;;;;10459733;28;20295;-71
2024/02/16 05:38:20;;;;;;;4.10;3.80;;;10.20;39.70;;;;;;10456919;28;20745;-71
2024/02/16 05:43:25;;;;;;;9.83;6.80;;;10.20;39.60;;;;;;10445901;28;20608;-71
2024/02/16 05:48:30;;;;;;;7.40;6.27;;;10.30;39.70;;;;;;10445939;28;20233;-71
2024/02/16 05:53:34;;;;;;;8.23;7.03;;;10.30;39.40;;;;;;10445731;28;20740;-71
2024/02/16 05:58:38;;;;;;;8.57;7.57;;;10.30;39.40;;;;;;10451802;28;20312;-71
2024/02/16 06:03:42;;;;;;;11.47;9.50;;;10.30;39.60;;;;;;10453641;28;20734;-71
2024/02/16 06:08:46;;;;;;;13.20;10.83;;;10.20;39.40;;;;;;10453500;28;21067;-73
2024/02/16 06:13:50;;;;;;;12.13;10.30;;;10.20;39.60;;;;;;10453456;28;20321;-73
2024/02/16 06:18:53;;;;;;;10.27;8.00;;;10.10;40.00;;;;;;10453216;28;20309;-71
2024/02/16 06:23:56;;;;;;;8.10;7.30;;;10.10;40.00;;;;;;10452767;28;20224;-73
2024/02/16 06:29:01;;;;;;;5.63;5.13;;;10.00;39.90;;;;;;10452728;28;20261;-73
2024/02/16 06:34:04;;;;;;;5.90;5.40;;;9.90;40.80;;;;;;10452321;28;20286;-71
2024/02/16 06:39:07;;;;;;;6.30;5.70;;;9.90;40.80;;;;;;10452544;28;20239;-71
2024/02/16 06:44:12;;;;;;;8.30;7.50;;;9.80;40.70;;;;;;10452472;28;20229;-73
2024/02/16 06:49:15;;;;;;;13.30;12.00;;;9.80;40.70;;;;;;10452439;28;20636;-70
2024/02/16 06:54:19;;;;;;;10.63;9.63;;;9.80;40.70;;;;;;10451715;28;20240;-71
2024/02/16 06:59:23;;;;;;;11.20;10.13;;;9.90;40.80;;;;;;10457906;28;20241;-71
2024/02/16 07:04:26;;;;;;;12.83;11.20;;;9.90;40.80;;;;;;10443637;28;20246;-73
2024/02/16 07:09:30;;;;;;;10.83;9.70;;;9.90;40.80;;;;;;10451367;28;20599;-71
2024/02/16 07:14:36;;;;;;;10.50;9.60;;;9.90;41.40;;;;;;10441172;28;20229;-71
2024/02/16 07:19:39;;;;;;;12.43;11.23;;;10.00;40.60;;;;;;10450248;28;20333;-71
2024/02/16 07:24:42;;;;;;;9.80;8.87;;;10.00;39.90;;;;;;10449722;28;20232;-72
2024/02/16 07:29:47;;;;;;;7.10;6.43;;;10.00;39.90;;;;;;10435864;28;20616;-71
2024/02/16 07:34:51;;;;;;;6.83;6.23;;;9.90;41.30;;;;;;10413213;28;20236;-74
2024/02/16 07:39:54;;;;;;;6.13;5.63;;;9.80;41.10;;;;;;10443832;28;20649;-73
2024/02/16 07:44:59;;;;;;;7.23;6.60;;;9.90;41.50;;;;;;10440933;28;20229;-73
2024/02/16 07:50:03;;;;;;;8.83;7.93;;;9.90;41.90;;;;;;10440504;28;20598;-72
2024/02/16 07:55:07;;;;;;;10.10;8.23;;;10.00;40.90;;;;;;10440096;28;20216;-71
2024/02/16 08:00:12;;;;;;;8.23;7.20;;;10.10;41.20;;;;;;10440529;28;20229;-73
2024/02/16 08:05:18;;;;;;;8.10;7.30;;;10.10;41.60;;;;;;10439608;28;20307;-73
2024/02/16 08:10:22;;;;;;;8.80;7.93;;;10.20;41.60;;;;;;10434459;28;20291;-71
2024/02/16 08:15:27;;;;;;;9.47;8.57;;;10.30;41.90;;;;;;10429784;28;20233;-72
2024/02/16 08:20:30;;;;;;;9.43;8.60;;;10.50;42.60;;;;;;10436912;28;20314;-73
2024/02/16 08:25:34;;;;;;;9.87;8.87;;;10.70;43.20;;;;;;10439789;28;20229;-72
2024/02/16 08:30:41;;;;;;;9.40;8.53;;;10.90;42.50;;;;;;10439262;28;20229;-73
2024/02/16 08:35:45;;;;;;;9.00;8.30;;;11.20;42.60;;;;;;10440553;28;20240;-73
2024/02/16 08:40:51;;;;;;;9.43;8.63;;;11.30;42.60;;;;;;10425953;28;20706;-73
2024/02/16 08:45:56;;;;;;;9.97;9.07;;;11.50;42.60;;;;;;10438543;28;20256;-76
2024/02/16 08:51:00;;;;;;;9.23;8.43;;;11.70;42.80;;;;;;10438844;28;20287;-73
2024/02/16 08:56:03;;;;;;;9.43;8.63;;;11.90;42.40;;;;;;10424861;28;20840;-75
2024/02/16 09:01:08;;;;;;;9.27;8.47;;;12.10;42.80;;;;;;10420517;28;20327;-75
2024/02/16 09:06:12;;;;;;;9.40;8.50;;;12.30;42.70;;;;;;10424952;28;20703;-75
2024/02/16 09:11:17;;;;;;;8.97;8.17;;;12.50;42.20;;;;;;10422251;28;20256;-75
2024/02/16 09:16:21;;;;;;;9.20;8.40;;;12.70;42.40;;;;;;10415751;28;20263;-76
2024/02/16 09:21:29;;;;;;;8.97;8.17;;;13.00;42.60;;;;;;10427261;28;20282;-74
2024/02/16 09:26:33;;;;;;;8.90;8.00;;;13.30;42.80;;;;;;10421742;28;20252;-74
2024/02/16 09:31:39;;;;;;;8.40;7.70;;;13.60;42.60;;;;;;10409554;28;20249;-74
2024/02/16 09:36:44;;;;;;;8.33;7.63;;;13.90;42.30;;;;;;10415776;28;20332;-77
2024/02/16 09:41:52;;;;;;;8.10;7.40;;;14.10;42.20;;;;;;10418357;28;20391;-76
2024/02/16 09:46:58;;;;;;;8.33;7.53;;;14.40;41.80;;;;;;10421018;28;20245;-75
2024/02/16 09:52:04;;;;;;;8.73;7.83;;;14.60;41.50;;;;;;10428729;28;20268;-77
2024/02/16 09:57:07;;;;;;;8.67;7.87;;;14.80;41.10;;;;;;10423078;28;20231;-76
2024/02/16 10:02:12;;;;;;;8.20;7.50;;;14.90;41.00;;;;;;10433349;28;20243;-75
2024/02/16 10:07:15;;;;;;;8.47;7.67;;;15.00;40.70;;;;;;10436982;28;20315;-75
2024/02/16 10:12:20;;;;;;;8.33;7.63;;;15.10;40.80;;;;;;10444866;28;20235;-75
2024/02/16 10:17:25;;;;;;;8.80;8.00;;;15.10;40.50;;;;;;10434807;28;20708;-76
2024/02/16 10:22:28;;;;;;;8.23;7.43;;;15.20;40.20;;;;;;10434420;28;20611;-76
2024/02/16 10:27:32;;;;;;;8.27;7.60;;;15.20;40.40;;;;;;10430533;28;20241;-76
2024/02/16 10:32:38;;;;;;;7.60;7.00;;;15.20;40.20;;;;;;10436698;28;20221;-74
2024/02/16 10:37:41;;;;;;;11.07;7.57;;;15.30;39.70;;;;;;10436593;28;20287;-76
2024/02/16 10:42:46;;;;;;;6.83;6.23;;;15.30;39.70;;;;;;10442482;28;20233;-76
2024/02/16 10:47:51;;;;;;;8.03;6.87;;;15.40;39.70;;;;;;10440570;28;21003;-75
2024/02/16 10:52:57;;;;;;;6.47;5.80;;;15.40;39.70;;;;;;10434884;28;20230;-76
2024/02/16 10:58:01;;;;;;;6.93;6.40;;;15.60;39.60;;;;;;10433437;28;20242;-76
2024/02/16 11:03:07;;;;;;;6.77;6.17;;;15.60;39.20;;;;;;10432792;28;20243;-74
2024/02/16 11:08:14;;;;;;;7.47;6.70;;;15.70;38.90;;;;;;10433259;28;20303;-76
2024/02/16 11:13:23;;;;;;;7.63;6.87;;;15.70;38.90;;;;;;10437716;28;20316;-76
2024/02/16 11:18:28;;;;;;;7.30;6.57;;;15.70;38.70;;;;;;10443568;28;20237;-76
2024/02/16 11:23:32;;;;;;;7.10;6.40;;;15.90;38.60;;;;;;10443618;28;20225;-76
2024/02/16 11:28:36;;;;;;;6.53;5.93;;;16.00;38.90;;;;;;10441684;28;20239;-76
2024/02/16 11:33:45;;;;;;;6.23;5.63;;;16.10;39.00;;;;;;10439338;28;20317;-77
2024/02/16 11:38:50;;;;;;;5.63;5.13;;;16.10;38.30;;;;;;10443086;28;20224;-77
2024/02/16 11:44:00;;;;;;;5.67;5.10;;;16.30;38.90;;;;;;10440822;28;20300;-75
2024/02/16 11:49:10;;;;;;;6.10;5.50;;;16.40;38.10;;;;;;10435152;28;20764;-75
2024/02/16 11:54:13;;;;;;;6.00;5.37;;;16.60;38.10;;;;;;10430709;28;20221;-75
2024/02/16 11:59:17;;;;;;;6.30;5.40;;;16.80;38.30;;;;;;10433583;28;20229;-75
2024/02/16 12:04:24;;;;;;;6.03;5.27;;;16.90;38.10;;;;;;10429366;28;20229;-75
2024/02/16 12:09:28;;;;;;;5.07;4.60;;;17.10;37.90;;;;;;10430107;28;20711;-75
2024/02/16 12:14:33;;;;;;;5.83;5.33;;;17.20;37.80;;;;;;10429962;28;20221;-75
2024/02/16 12:19:44;;;;;;;5.30;4.80;;;17.20;37.70;;;;;;10433215;28;20713;-76
2024/02/16 12:24:50;;;;;;;5.80;4.27;;;17.30;37.50;;;;;;10429941;28;20228;-75
2024/02/16 12:29:53;;;;;;;4.40;4.00;;;17.50;37.40;;;;;;10440789;28;20255;-77
2024/02/16 12:34:57;;;;;;;4.93;4.50;;;17.50;37.70;;;;;;10438416;28;20217;-77
2024/02/16 12:40:01;;;;;;;4.20;3.90;;;17.60;37.10;;;;;;10432602;28;20244;-75
2024/02/16 12:45:05;;;;;;;5.27;4.77;;;17.80;37.30;;;;;;10439259;28;20225;-76
2024/02/16 12:50:13;;;;;;;5.00;4.50;;;17.80;36.70;;;;;;10432534;28;20275;-78
2024/02/16 12:55:17;;;;;;;5.10;4.60;;;17.90;35.60;;;;;;10429963;28;20307;-77
2024/02/16 13:00:20;;;;;;;4.97;4.57;;;17.90;36.70;;;;;;10432978;28;20224;-76
2024/02/16 13:05:25;;;;;;;5.13;4.63;;;18.00;36.50;;;;;;10429858;28;20233;-76
2024/02/16 13:10:30;;;;;;;4.70;4.33;;;18.00;36.10;;;;;;10432689;28;20229;-76
2024/02/16 13:15:33;;;;;;;4.57;4.17;;;18.10;36.50;;;;;;10434918;28;20244;-77
2024/02/16 13:20:38;;;;;;;4.83;4.43;;;18.10;36.40;;;;;;10434525;28;22383;-76
2024/02/16 13:25:41;;;;;;;5.33;4.83;;;18.10;35.80;;;;;;10429575;28;20233;-76
2024/02/16 13:30:44;;;;;;;5.57;4.80;;;18.10;36.20;;;;;;10421024;28;20280;-76
2024/02/16 13:35:49;;;;;;;5.53;5.03;;;18.10;36.20;;;;;;10424219;28;20228;-76
2024/02/16 13:40:52;;;;;;;5.00;4.60;;;18.20;35.70;;;;;;10433487;28;20217;-76
2024/02/16 13:45:57;;;;;;;6.13;5.07;;;18.30;35.80;;;;;;10433957;28;20221;-76
2024/02/16 13:51:02;;;;;;;5.77;4.80;;;18.20;35.80;;;;;;10437653;28;20216;-76
2024/02/16 13:56:06;;;;;;;5.77;5.17;;;18.20;35.70;;;;;;10427810;28;20220;-75
2024/02/16 14:01:10;;;;;;;5.67;5.13;;;18.20;36.00;;;;;;10425802;28;20256;-75
2024/02/16 14:06:15;;;;;;;5.50;5.00;;;18.30;36.40;;;;;;10431038;28;20229;-76
2024/02/16 14:11:19;;;;;;;6.90;5.53;;;18.30;35.80;;;;;;10433087;28;20727;-76
2024/02/16 14:16:23;;;;;;;5.50;5.00;;;18.30;35.80;;;;;;10435832;28;20772;-77
2024/02/16 14:21:27;;;;;;;5.37;4.93;;;18.30;35.90;;;;;;10435107;28;20229;-77
2024/02/16 14:26:34;;;;;;;6.00;5.40;;;18.30;35.90;;;;;;10433975;28;20232;-77
2024/02/16 14:31:37;;;;;;;9.00;5.83;;;18.30;36.30;;;;;;10442534;28;20225;-77
2024/02/16 14:36:42;;;;;;;6.47;5.87;;;18.30;36.30;;;;;;10444152;28;20707;-77
2024/02/16 14:41:45;;;;;;;6.27;5.67;;;18.30;36.00;;;;;;10444508;28;20258;-77
2024/02/16 14:46:49;;;;;;;9.40;6.40;;;18.30;36.20;;;;;;10439704;28;20221;-77
2024/02/16 14:51:53;;;;;;;6.07;5.47;;;18.30;36.20;;;;;;10438030;28;20233;-77
2024/02/16 14:56:58;;;;;;;7.87;7.00;;;18.20;36.00;;;;;;10443923;28;20232;-77
2024/02/16 15:02:02;;;;;;;6.23;5.70;;;18.20;36.10;;;;;;10440025;28;20738;-78
2024/02/16 15:07:07;;;;;;;9.50;8.70;;;18.20;36.30;;;;;;10442296;28;20578;-77
2024/02/16 15:12:10;;;;;;;8.53;7.80;;;18.20;36.20;;;;;;10431567;28;20229;-77
2024/02/16 15:17:13;;;;;;;7.07;5.60;;;18.20;36.30;;;;;;10446373;28;20241;-76
2024/02/16 15:22:18;;;;;;;5.57;5.10;;;18.30;36.50;;;;;;10441090;28;20229;-77
2024/02/16 15:27:21;;;;;;;6.67;6.07;;;18.20;36.30;;;;;;10441189;28;20300;-77
2024/02/16 15:32:24;;;;;;;11.10;10.17;;;18.20;36.40;;;;;;10438148;28;20240;-77
2024/02/16 15:37:29;;;;;;;15.57;14.07;;;18.30;36.40;;;;;;10443596;28;20240;-77
2024/02/16 15:42:35;;;;;;;8.10;7.40;;;18.30;36.10;;;;;;10439823;28;20312;-77
2024/02/16 15:47:39;;;;;;;7.37;5.03;;;18.20;36.00;;;;;;10432421;28;20295;-77
2024/02/16 15:52:44;;;;;;;5.77;5.27;;;18.20;36.50;;;;;;10437356;28;20256;-76
2024/02/16 15:57:47;;;;;;;5.53;5.03;;;18.20;36.00;;;;;;10430506;28;20237;-76
2024/02/16 16:02:50;;;;;;;5.80;5.30;;;18.20;36.10;;;;;;10429243;28;20350;-77
2024/02/16 16:07:55;;;;;;;8.50;6.40;;;18.20;36.20;;;;;;10438778;28;20225;-77
2024/02/16 16:12:59;;;;;;;5.97;5.37;;;18.10;35.90;;;;;;10439213;28;20571;-77
2024/02/16 16:18:02;;;;;;;6.80;6.10;;;18.10;36.20;;;;;;10435558;28;20245;-77
2024/02/16 16:23:08;;;;;;;6.23;5.73;;;18.10;36.30;;;;;;10439442;28;20307;-77
2024/02/16 16:28:11;;;;;;;29.17;18.60;;;18.00;36.20;;;;;;10435159;28;20229;-77
2024/02/16 16:33:15;;;;;;;8.63;7.70;;;17.90;36.20;;;;;;10435625;28;20221;-77
2024/02/16 16:38:20;;;;;;;8.03;6.30;;;17.90;36.30;;;;;;10432797;28;20762;-77
2024/02/16 16:43:23;;;;;;;5.60;5.10;;;17.80;36.20;;;;;;10432866;28;20237;-76
2024/02/16 16:48:27;;;;;;;6.20;5.67;;;17.80;36.60;;;;;;10435108;28;20233;-77
2024/02/16 16:53:31;;;;;;;5.30;4.73;;;17.70;36.40;;;;;;10439231;28;20253;-77
2024/02/16 16:58:34;;;;;;;5.40;4.90;;;17.70;36.60;;;;;;10430321;28;20799;-77
2024/02/16 17:03:38;;;;;;;32.57;18.97;;;17.60;36.60;;;;;;10431784;28;20321;-77
2024/02/16 17:08:42;;;;;;;26.67;17.97;;;17.50;36.50;;;;;;10428698;28;20241;-77
2024/02/16 17:13:48;;;;;;;12.83;11.37;;;17.40;36.50;;;;;;10422425;28;20276;-76
2024/02/16 17:18:52;;;;;;;10.77;9.67;;;17.20;36.70;;;;;;10427419;28;20230;-76
2024/02/16 17:23:57;;;;;;;20.90;18.73;;;17.10;36.90;;;;;;10432103;28;20237;-76
2024/02/16 17:29:00;;;;;;;16.90;15.20;;;17.00;37.20;;;;;;10432679;28;20343;-76
2024/02/16 17:34:05;;;;;;;9.60;8.70;;;16.90;37.30;;;;;;10429071;28;20252;-76
2024/02/16 17:39:12;;;;;;;8.67;7.73;;;16.80;37.40;;;;;;10434396;28;20225;-76
2024/02/16 17:44:16;;;;;;;9.03;8.13;;;16.70;37.60;;;;;;10431461;28;20228;-76
2024/02/16 17:49:19;;;;;;;8.80;8.00;;;16.80;37.50;;;;;;10427437;28;20263;-76
2024/02/16 17:54:24;;;;;;;8.67;7.87;;;16.70;37.60;;;;;;10432826;28;20240;-76
2024/02/16 17:59:28;;;;;;;16.90;15.13;;;16.70;37.60;;;;;;10440434;28;21057;-76
2024/02/16 18:04:33;;;;;;;13.77;12.33;;;16.60;37.40;;;;;;10438442;28;20239;-76
2024/02/16 18:09:38;;;;;;;12.30;11.00;;;16.50;37.50;;;;;;10435199;28;20333;-76
2024/02/16 18:14:41;;;;;;;11.40;10.30;;;16.40;37.90;;;;;;10437502;28;20731;-76
2024/02/16 18:19:44;;;;;;;12.20;10.93;;;16.30;37.80;;;;;;10438651;28;20242;-76
2024/02/16 18:24:49;;;;;;;10.80;9.70;;;16.30;38.00;;;;;;10433105;28;20266;-76
2024/02/16 18:29:52;;;;;;;8.80;7.90;;;16.30;38.10;;;;;;10434493;28;20249;-76
2024/02/16 18:34:56;;;;;;;10.30;9.30;;;16.30;37.80;;;;;;10441565;28;20223;-76
2024/02/16 18:40:01;;;;;;;9.10;8.20;;;16.30;38.00;;;;;;10440258;28;20232;-76
2024/02/16 18:45:08;;;;;;;8.53;7.73;;;16.30;38.20;;;;;;10431976;28;20592;-76
2024/02/16 18:50:11;;;;;;;13.83;11.13;;;16.10;38.00;;;;;;10442905;28;20235;-75
2024/02/16 18:55:16;;;;;;;11.07;9.97;;;16.10;38.50;;;;;;10433977;28;20314;-76
2024/02/16 19:00:20;;;;;;;11.93;10.73;;;16.10;38.80;;;;;;10437142;28;20228;-76
2024/02/16 19:05:24;;;;;;;12.37;11.03;;;16.00;38.60;;;;;;10436143;28;20244;-76
2024/02/16 19:10:31;;;;;;;10.47;9.37;;;16.00;38.70;;;;;;10434669;28;20235;-76
2024/02/16 19:15:34;;;;;;;10.27;9.13;;;15.90;39.10;;;;;;10438024;28;20229;-76
2024/02/16 19:20:38;;;;;;;11.73;10.20;;;15.90;39.00;;;;;;10439206;28;20612;-76
2024/02/16 19:25:43;;;;;;;10.37;8.63;;;15.80;38.90;;;;;;10435667;28;20225;-76
2024/02/16 19:30:46;;;;;;;11.20;10.00;;;15.80;39.40;;;;;;10434760;28;20233;-76
2024/02/16 19:35:52;;;;;;;9.70;8.70;;;15.80;39.10;;;;;;10436566;28;20221;-76
2024/02/16 19:40:56;;;;;;;10.73;9.73;;;15.80;39.10;;;;;;10427473;28;20384;-76
2024/02/16 19:46:02;;;;;;;9.83;8.93;;;15.80;39.70;;;;;;10442004;28;20236;-76
2024/02/16 19:51:06;;;;;;;12.13;10.97;;;15.70;39.40;;;;;;10433470;28;20703;-76
2024/02/16 19:56:11;;;;;;;10.20;9.30;;;15.80;39.40;;;;;;10433935;28;20237;-76
2024/02/16 20:01:14;;;;;;;10.20;9.07;;;15.70;39.60;;;;;;10437591;28;20253;-76
2024/02/16 20:06:17;;;;;;;10.37;9.37;;;15.70;39.40;;;;;;10434996;28;20772;-76
2024/02/16 20:11:22;;;;;;;10.77;8.80;;;15.70;39.40;;;;;;10435766;28;20232;-76
2024/02/16 20:16:26;;;;;;;9.37;8.40;;;15.70;39.80;;;;;;10432711;28;20233;-76
2024/02/16 20:21:29;;;;;;;8.20;7.43;;;15.60;39.50;;;;;;10438428;28;20228;-76
2024/02/16 20:26:34;;;;;;;8.33;7.63;;;15.50;39.50;;;;;;10442179;28;20217;-76
2024/02/16 20:31:38;;;;;;;10.80;8.93;;;15.40;40.00;;;;;;10439623;28;20239;-76
2024/02/16 20:36:42;;;;;;;10.07;9.07;;;15.40;39.90;;;;;;10437452;28;20260;-76
2024/02/16 20:41:48;;;;;;;10.50;9.17;;;15.40;40.10;;;;;;10435149;28;20235;-76
2024/02/16 20:46:51;;;;;;;15.83;13.53;;;15.40;40.30;;;;;;10436338;28;20227;-76
2024/02/16 20:51:54;;;;;;;13.73;11.47;;;15.40;40.20;;;;;;10437046;28;20221;-76
2024/02/16 20:57:00;;;;;;;11.10;10.00;;;15.30;40.20;;;;;;10434833;28;20252;-76
2024/02/16 21:02:03;;;;;;;10.27;7.57;;;15.30;40.60;;;;;;10437836;28;20236;-76
2024/02/16 21:07:06;;;;;;;9.20;7.63;;;15.20;40.40;;;;;;10438292;28;20806;-76
2024/02/16 21:12:11;;;;;;;10.00;9.00;;;15.20;40.60;;;;;;10436549;28;20221;-76
2024/02/16 21:17:15;;;;;;;9.60;8.60;;;15.20;41.00;;;;;;10437526;28;20228;-76
2024/02/16 21:22:18;;;;;;;10.60;9.50;;;15.10;40.70;;;;;;10438119;28;20670;-76
2024/02/16 21:27:24;;;;;;;17.10;15.40;;;15.00;40.80;;;;;;10436370;28;20319;-76
2024/02/16 21:32:28;;;;;;;24.73;22.23;;;14.90;41.30;;;;;;10425267;28;20231;-76
2024/02/16 21:37:31;;;;;;;18.37;16.67;;;14.80;41.30;;;;;;10435263;28;20282;-76
2024/02/16 21:42:36;;;;;;;12.80;10.43;;;14.80;41.40;;;;;;10431535;28;20282;-76
2024/02/16 21:47:39;;;;;;;12.83;10.03;;;14.80;42.10;;;;;;10429178;28;20283;-75
2024/02/16 21:52:43;;;;;;;9.60;8.70;;;14.70;41.80;;;;;;10429382;28;20229;-75
2024/02/16 21:57:47;;;;;;;9.83;8.83;;;14.60;41.70;;;;;;10424523;28;20719;-76
2024/02/16 22:02:50;;;;;;;9.37;7.87;;;14.60;42.40;;;;;;10427789;28;20284;-76
2024/02/16 22:07:53;;;;;;;9.27;8.43;;;14.60;42.10;;;;;;10429898;28;20229;-75
2024/02/16 22:12:58;;;;;;;9.60;8.47;;;14.50;42.20;;;;;;10427957;28;20221;-76
2024/02/16 22:18:03;;;;;;;10.63;9.53;;;14.50;42.70;;;;;;10428294;28;20707;-76
2024/02/16 22:23:06;;;;;;;10.00;9.00;;;14.50;42.30;;;;;;10424687;28;20221;-76
2024/02/16 22:28:10;;;;;;;14.43;9.90;;;14.30;42.40;;;;;;10431821;28;20229;-76
2024/02/16 22:33:14;;;;;;;12.07;10.77;;;14.30;43.30;;;;;;10433200;28;20298;-76
2024/02/16 22:38:17;;;;;;;12.13;9.13;;;14.30;42.80;;;;;;10433267;28;20283;-76
2024/02/16 22:43:22;;;;;;;12.23;9.87;;;14.20;42.90;;;;;;10442923;28;20237;-76
2024/02/16 22:48:25;;;;;;;11.87;10.00;;;14.30;43.70;;;;;;10438401;28;20279;-76
2024/02/16 22:53:28;;;;;;;13.50;12.30;;;14.30;43.10;;;;;;10441509;28;20715;-76
2024/02/16 22:58:33;;;;;;;9.47;8.50;;;14.30;42.90;;;;;;10439369;28;20237;-76
2024/02/16 23:03:36;;;;;;;8.50;7.70;;;14.40;43.80;;;;;;10440568;28;20696;-76
2024/02/16 23:08:39;;;;;;;9.77;8.77;;;14.40;43.00;;;;;;10437251;28;20600;-76
2024/02/16 23:13:44;;;;;;;11.57;10.47;;;14.40;42.90;;;;;;10441105;28;20247;-75
2024/02/16 23:18:48;;;;;;;10.40;9.10;;;14.40;43.80;;;;;;10433608;28;20232;-75
2024/02/16 23:23:51;;;;;;;9.13;8.33;;;14.40;43.20;;;;;;10436526;28;20669;-75
2024/02/16 23:28:56;;;;;;;11.07;9.00;;;14.30;43.40;;;;;;10433488;28;20239;-76
2024/02/16 23:33:59;;;;;;;8.63;7.73;;;14.30;43.70;;;;;;10434160;28;20221;-76
2024/02/16 23:39:03;;;;;;;8.33;7.50;;;14.20;43.60;;;;;;10442561;28;20766;-76
2024/02/16 23:44:08;;;;;;;7.73;6.93;;;14.20;43.60;;;;;;10432575;28;20221;-76
2024/02/16 23:49:12;;;;;;;7.97;7.17;;;14.20;43.60;;;;;;10444032;28;20231;-76
2024/02/16 23:54:15;;;;;;;7.97;7.23;;;14.20;43.60;;;;;;10438920;28;20275;-76
2024/02/16 23:59:20;;;;;;;7.80;7.10;;;14.20;43.60;;;;;;10440522;28;20233;-76
